createdAt,value
2019-03-08T00:02:03.997Z,7.70
2019-03-08T00:04:34.613Z,7.80
2019-03-08T00:07:06.251Z,7.80
2019-03-08T00:09:37.327Z,7.90
2019-03-08T00:12:09.448Z,7.90
2019-03-08T00:14:39.998Z,7.90
2019-03-08T00:17:10.645Z,8.00
2019-03-08T00:19:42.332Z,8.00
2019-03-08T00:22:13.343Z,8.00
2019-03-08T00:24:44.307Z,8.00
2019-03-08T00:27:15.127Z,8.00
2019-03-08T00:29:45.846Z,8.10
2019-03-08T00:32:16.555Z,8.10
2019-03-08T00:34:47.247Z,8.10
2019-03-08T00:37:18.244Z,8.10
2019-03-08T00:39:51.052Z,8.10
2019-03-08T00:42:21.712Z,8.10
2019-03-08T00:44:53.742Z,8.10
2019-03-08T00:47:24.436Z,8.10
2019-03-08T00:49:55.475Z,8.00
2019-03-08T00:52:26.307Z,8.00
2019-03-08T00:54:56.852Z,8.00
2019-03-08T00:57:39.239Z,8.10
2019-03-08T01:00:13.141Z,8.20
2019-03-08T01:02:44.236Z,8.20
2019-03-08T01:05:16.198Z,8.30
2019-03-08T01:07:47.410Z,8.40
2019-03-08T01:10:18.692Z,8.40
2019-03-08T01:12:49.709Z,8.50
2019-03-08T01:15:20.671Z,8.60
2019-03-08T01:17:51.227Z,8.70
2019-03-08T01:20:21.812Z,8.70
2019-03-08T01:22:52.512Z,8.70
2019-03-08T01:25:23.696Z,8.70
2019-03-08T01:27:59.299Z,8.70
2019-03-08T01:30:31.364Z,8.60
2019-03-08T01:33:02.028Z,8.50
2019-03-08T01:35:40.809Z,8.40
2019-03-08T01:38:13.319Z,8.20
2019-03-08T01:40:43.968Z,8.00
2019-03-08T01:43:15.064Z,7.80
2019-03-08T01:45:45.714Z,7.70
2019-03-08T01:48:16.455Z,7.60
2019-03-08T01:50:46.970Z,7.60
2019-03-08T01:53:17.582Z,7.60
2019-03-08T01:55:48.226Z,7.50
2019-03-08T01:58:19.915Z,7.40
2019-03-08T02:00:50.522Z,7.40
2019-03-08T02:03:21.189Z,7.40
2019-03-08T02:05:52.046Z,7.40
2019-03-08T02:08:22.801Z,7.50
2019-03-08T02:10:53.659Z,7.50
2019-03-08T02:13:24.327Z,7.60
2019-03-08T02:15:55.322Z,7.60
2019-03-08T02:18:26.013Z,7.60
2019-03-08T02:20:56.701Z,7.60
2019-03-08T02:23:27.633Z,7.60
2019-03-08T02:25:58.338Z,7.60
2019-03-08T02:28:28.914Z,7.60
2019-03-08T02:30:59.573Z,7.60
2019-03-08T02:33:30.314Z,7.60
2019-03-08T02:36:00.962Z,7.50
2019-03-08T02:38:31.659Z,7.40
2019-03-08T02:41:02.704Z,7.50
2019-03-08T02:43:33.495Z,7.40
2019-03-08T02:46:05.455Z,7.40
2019-03-08T02:48:36.421Z,7.40
2019-03-08T02:51:07.063Z,7.40
2019-03-08T02:53:37.813Z,7.40
2019-03-08T02:56:08.583Z,7.40
2019-03-08T02:58:39.180Z,7.50
2019-03-08T03:01:09.918Z,7.50
2019-03-08T03:03:40.631Z,7.60
2019-03-08T03:06:11.296Z,7.60
2019-03-08T03:08:42.050Z,7.70
2019-03-08T03:11:12.740Z,7.70
2019-03-08T03:13:43.297Z,7.80
2019-03-08T03:16:14.265Z,7.80
2019-03-08T03:19:04.332Z,7.90
2019-03-08T03:21:34.993Z,7.90
2019-03-08T03:24:05.700Z,8.00
2019-03-08T03:26:36.367Z,8.00
2019-03-08T03:29:07.013Z,8.10
2019-03-08T03:31:37.687Z,8.10
2019-03-08T03:34:08.764Z,8.10
2019-03-08T03:36:39.890Z,8.10
2019-03-08T03:39:10.513Z,8.10
2019-03-08T03:41:41.134Z,8.10
2019-03-08T03:44:11.789Z,8.00
2019-03-08T03:46:42.481Z,8.00
2019-03-08T03:49:13.399Z,8.00
2019-03-08T03:51:43.925Z,8.00
2019-03-08T03:54:14.669Z,8.00
2019-03-08T03:56:45.588Z,8.10
2019-03-08T03:59:16.218Z,8.10
2019-03-08T04:01:49.739Z,8.20
2019-03-08T04:04:20.439Z,8.20
2019-03-08T04:06:51.018Z,8.20
2019-03-08T04:09:21.682Z,8.20
2019-03-08T04:12:04.144Z,8.30
2019-03-08T04:14:34.770Z,8.30
2019-03-08T04:17:05.411Z,8.40
2019-03-08T04:19:36.251Z,8.30
2019-03-08T04:22:06.933Z,8.30
2019-03-08T04:24:37.994Z,8.30
2019-03-08T04:27:08.670Z,8.40
2019-03-08T04:29:39.387Z,8.40
2019-03-08T04:32:10.492Z,8.50
2019-03-08T04:34:41.149Z,8.60
2019-03-08T04:37:11.707Z,8.70
2019-03-08T04:39:42.289Z,8.80
2019-03-08T04:42:12.845Z,8.80
2019-03-08T04:44:43.518Z,8.90
2019-03-08T04:47:33.529Z,8.90
2019-03-08T04:50:15.948Z,8.90
2019-03-08T04:52:46.770Z,9.00
2019-03-08T04:55:17.564Z,9.00
2019-03-08T04:57:49.007Z,9.00
2019-03-08T05:00:19.827Z,8.90
2019-03-08T05:02:50.665Z,8.80
2019-03-08T05:05:21.471Z,8.70
2019-03-08T05:07:52.130Z,8.50
2019-03-08T05:10:23.043Z,8.40
2019-03-08T05:12:53.769Z,8.30
2019-03-08T05:15:24.842Z,8.30
2019-03-08T05:17:56.005Z,8.30
2019-03-08T05:20:27.105Z,8.30
2019-03-08T05:22:58.034Z,8.30
2019-03-08T05:25:29.063Z,8.30
2019-03-08T05:27:59.783Z,8.30
2019-03-08T05:30:30.547Z,8.40
2019-03-08T05:33:01.195Z,8.40
2019-03-08T05:35:31.900Z,8.40
2019-03-08T05:38:02.513Z,8.40
2019-03-08T05:40:33.184Z,8.50
2019-03-08T05:43:04.137Z,8.40
2019-03-08T05:45:53.934Z,8.40
2019-03-08T05:48:26.498Z,8.50
2019-03-08T05:50:57.327Z,8.50
2019-03-08T05:53:27.999Z,8.50
2019-03-08T05:55:58.506Z,8.50
2019-03-08T05:58:29.367Z,8.50
2019-03-08T06:01:00.101Z,8.50
2019-03-08T06:03:30.673Z,8.50
2019-03-08T06:06:01.696Z,8.50
2019-03-08T06:08:32.281Z,8.50
2019-03-08T06:11:03.088Z,8.60
2019-03-08T06:13:34.063Z,8.70
2019-03-08T06:16:04.686Z,8.80
2019-03-08T06:18:54.933Z,8.80
2019-03-08T06:21:25.929Z,8.90
2019-03-08T06:23:56.577Z,9.00
2019-03-08T06:26:27.276Z,9.00
2019-03-08T06:28:57.923Z,9.00
2019-03-08T06:31:28.543Z,9.10
2019-03-08T06:33:59.275Z,9.20
2019-03-08T06:36:29.962Z,9.20
2019-03-08T06:39:19.823Z,9.10
2019-03-08T06:41:50.621Z,9.10
2019-03-08T06:44:21.678Z,9.10
2019-03-08T06:46:52.360Z,9.00
2019-03-08T06:49:23.415Z,9.00
2019-03-08T06:51:54.062Z,9.00
2019-03-08T06:54:24.737Z,9.00
2019-03-08T06:56:55.822Z,9.20
2019-03-08T06:59:34.436Z,9.50
2019-03-08T07:02:06.994Z,9.80
2019-03-08T07:04:37.711Z,11.30
2019-03-08T07:07:08.617Z,13.10
2019-03-08T07:09:39.438Z,14.50
2019-03-08T07:12:11.113Z,15.20
2019-03-08T07:14:42.449Z,15.60
2019-03-08T07:17:14.476Z,15.60
2019-03-08T07:20:16.800Z,15.90
2019-03-08T07:23:06.850Z,15.80
2019-03-08T07:26:03.077Z,15.40
2019-03-08T07:28:58.783Z,14.90
2019-03-08T07:31:47.358Z,14.40
2019-03-08T07:34:26.164Z,14.10
2019-03-08T07:37:15.829Z,14.00
2019-03-08T07:40:05.497Z,13.90
2019-03-08T07:42:45.090Z,14.60
2019-03-08T07:45:37.953Z,15.80
2019-03-08T07:48:17.445Z,18.40
2019-03-08T07:51:13.187Z,19.00
2019-03-08T07:53:59.524Z,19.80
2019-03-08T07:56:55.921Z,20.40
2019-03-08T07:59:53.384Z,21.40
2019-03-08T08:02:37.785Z,20.30
2019-03-08T08:05:25.821Z,22.30
2019-03-08T08:08:05.499Z,22.90
2019-03-08T08:10:53.816Z,22.40
2019-03-08T08:13:40.415Z,21.50
2019-03-08T08:16:30.118Z,20.20
2019-03-08T08:19:07.618Z,19.60
2019-03-08T08:21:57.306Z,18.70
2019-03-08T08:24:46.999Z,18.00
2019-03-08T08:27:29.239Z,17.40
2019-03-08T08:30:18.979Z,16.90
2019-03-08T08:33:07.479Z,16.40
2019-03-08T08:36:00.262Z,16.00
2019-03-08T08:38:42.752Z,15.90
2019-03-08T08:41:31.395Z,15.60
2019-03-08T08:44:19.621Z,15.20
2019-03-08T08:47:16.180Z,14.90
2019-03-08T08:50:21.159Z,14.80
2019-03-08T08:53:11.175Z,14.60
2019-03-08T08:56:02.738Z,14.40
2019-03-08T08:58:58.837Z,14.30
2019-03-08T09:01:39.867Z,14.20
2019-03-08T09:04:33.665Z,14.20
2019-03-08T09:07:22.488Z,14.20
2019-03-08T09:10:07.205Z,14.20
2019-03-08T09:12:55.893Z,14.30
2019-03-08T09:15:45.532Z,14.50
2019-03-08T09:18:32.243Z,14.70
2019-03-08T09:21:23.482Z,15.00
2019-03-08T09:24:13.147Z,15.20
2019-03-08T09:27:06.069Z,15.60
2019-03-08T09:29:59.834Z,18.00
2019-03-08T09:32:58.678Z,21.80
2019-03-08T09:35:40.901Z,23.90
2019-03-08T09:38:31.251Z,24.70
2019-03-08T09:41:18.070Z,26.10
2019-03-08T09:44:02.003Z,27.30
2019-03-08T09:46:50.171Z,25.90
2019-03-08T09:49:40.414Z,24.00
2019-03-08T09:52:44.332Z,22.40
2019-03-08T09:55:37.169Z,20.90
2019-03-08T09:58:25.458Z,19.60
2019-03-08T10:01:16.594Z,18.90
2019-03-08T10:03:51.181Z,19.10
2019-03-08T10:06:40.934Z,19.70
2019-03-08T10:09:20.314Z,20.00
2019-03-08T10:12:12.786Z,19.60
2019-03-08T10:15:01.448Z,19.00
2019-03-08T10:17:55.487Z,19.30
2019-03-08T10:23:44.230Z,20.10
2019-03-08T10:26:37.865Z,19.50
2019-03-08T10:29:19.485Z,18.90
2019-03-08T10:32:12.296Z,18.20
2019-03-08T10:34:51.959Z,17.90
2019-03-08T10:37:44.739Z,17.60
2019-03-08T10:40:34.466Z,17.40
2019-03-08T10:43:35.021Z,17.20
2019-03-08T10:46:37.052Z,17.00
2019-03-08T10:49:36.026Z,16.80
2019-03-08T10:52:28.435Z,16.60
2019-03-08T10:55:30.577Z,16.60
2019-03-08T10:58:35.339Z,16.60
2019-03-08T11:01:23.663Z,16.60
2019-03-08T11:04:25.926Z,16.50
2019-03-08T11:07:08.330Z,16.60
2019-03-08T11:09:48.398Z,16.70
2019-03-08T11:12:29.362Z,17.10
2019-03-08T11:15:10.947Z,17.30
2019-03-08T11:17:55.931Z,17.20
2019-03-08T11:20:39.537Z,17.00
2019-03-08T11:23:31.891Z,16.90
2019-03-08T11:26:22.696Z,16.90
2019-03-08T11:29:21.414Z,16.90
2019-03-08T11:32:23.002Z,16.70
2019-03-08T11:35:02.037Z,16.60
2019-03-08T11:37:52.809Z,16.40
2019-03-08T11:40:53.059Z,16.20
2019-03-08T11:43:36.134Z,16.10
2019-03-08T11:46:26.057Z,16.00
2019-03-08T11:49:18.415Z,15.80
2019-03-08T11:52:05.180Z,15.80
2019-03-08T11:54:58.096Z,15.80
2019-03-08T11:58:03.365Z,15.70
2019-03-08T12:00:53.090Z,15.60
2019-03-08T12:03:41.223Z,15.40
2019-03-08T12:06:46.384Z,15.30
2019-03-08T12:09:30.469Z,15.40
2019-03-08T12:12:19.035Z,15.50
2019-03-08T12:15:11.839Z,15.60
2019-03-08T12:17:56.235Z,15.70
2019-03-08T12:20:36.303Z,16.00
2019-03-08T12:23:38.348Z,16.20
2019-03-08T12:26:46.359Z,16.30
2019-03-08T12:29:42.261Z,16.40
2019-03-08T12:32:41.292Z,16.50
2019-03-08T12:35:31.502Z,16.80
2019-03-08T12:38:20.633Z,16.70
2019-03-08T12:41:02.939Z,16.70
2019-03-08T12:43:54.175Z,16.80
2019-03-08T12:46:56.150Z,16.80
2019-03-08T12:49:48.785Z,16.70
2019-03-08T12:52:34.079Z,16.30
2019-03-08T12:55:24.304Z,16.20
2019-03-08T12:58:26.631Z,16.40
2019-03-08T13:01:16.335Z,16.60
2019-03-08T13:04:03.495Z,16.60
2019-03-08T13:06:51.584Z,16.60
2019-03-08T13:09:56.767Z,16.40
2019-03-08T13:12:27.476Z,16.20
2019-03-08T13:14:58.184Z,15.90
2019-03-08T13:17:28.915Z,15.50
2019-03-08T13:19:59.621Z,15.20
2019-03-08T13:22:30.214Z,14.80
2019-03-08T13:25:00.948Z,14.30
2019-03-08T13:27:31.679Z,13.90
2019-03-08T13:30:02.361Z,13.50
2019-03-08T13:32:34.363Z,13.20
2019-03-08T13:35:05.459Z,13.10
2019-03-08T13:37:36.652Z,13.30
2019-03-08T13:40:07.319Z,13.60
2019-03-08T13:42:38.169Z,13.90
2019-03-08T13:45:11.143Z,14.20
2019-03-08T13:47:41.860Z,14.50
2019-03-08T13:50:14.122Z,14.70
2019-03-08T13:52:45.729Z,14.80
2019-03-08T13:55:16.399Z,14.80
2019-03-08T13:57:48.122Z,14.80
2019-03-08T14:00:19.940Z,14.70
2019-03-08T14:02:50.785Z,14.40
2019-03-08T14:05:21.841Z,14.10
2019-03-08T14:07:52.528Z,14.10
2019-03-08T14:10:23.121Z,14.30
2019-03-08T14:12:53.747Z,14.70
2019-03-08T14:15:24.491Z,14.90
2019-03-08T14:17:55.605Z,14.90
2019-03-08T14:20:26.425Z,14.70
2019-03-08T14:22:57.165Z,14.70
2019-03-08T14:25:27.892Z,14.60
2019-03-08T14:27:58.403Z,14.40
2019-03-08T14:30:32.191Z,14.20
2019-03-08T14:33:03.127Z,14.10
2019-03-08T14:35:34.120Z,14.00
2019-03-08T14:38:04.823Z,13.80
2019-03-08T14:41:00.567Z,13.70
2019-03-08T14:43:36.241Z,13.60
2019-03-08T14:46:17.253Z,13.60
2019-03-08T14:48:46.593Z,13.40
2019-03-08T14:51:18.050Z,13.20
2019-03-08T14:53:48.747Z,13.00
2019-03-08T14:56:19.440Z,12.70
2019-03-08T14:58:50.177Z,12.40
2019-03-08T15:01:20.913Z,12.10
2019-03-08T15:03:51.529Z,12.10
2019-03-08T15:06:22.273Z,12.10
2019-03-08T15:08:55.027Z,12.20
2019-03-08T15:11:25.646Z,12.20
2019-03-08T15:13:58.046Z,12.20
2019-03-08T15:16:28.731Z,12.10
2019-03-08T15:18:59.407Z,12.10
2019-03-08T15:21:33.173Z,12.10
2019-03-08T15:24:02.538Z,12.10
2019-03-08T15:26:33.233Z,12.20
2019-03-08T15:29:03.793Z,12.40
2019-03-08T15:31:34.590Z,12.70
2019-03-08T15:34:05.215Z,12.80
2019-03-08T15:36:35.940Z,12.80
2019-03-08T15:39:08.466Z,12.70
2019-03-08T15:41:40.088Z,12.40
2019-03-08T15:44:11.028Z,12.20
2019-03-08T15:46:41.995Z,12.00
2019-03-08T15:49:12.747Z,11.80
2019-03-08T15:51:43.406Z,11.70
2019-03-08T15:54:14.421Z,11.60
2019-03-08T15:56:45.199Z,11.50
2019-03-08T15:59:15.865Z,11.30
2019-03-08T16:01:46.631Z,11.20
2019-03-08T16:04:18.956Z,11.20
2019-03-08T16:06:49.887Z,11.10
2019-03-08T16:09:20.899Z,11.00
2019-03-08T16:11:51.505Z,10.90
2019-03-08T16:14:22.195Z,10.80
2019-03-08T16:16:52.809Z,10.60
2019-03-08T16:19:24.714Z,10.50
2019-03-08T16:21:55.818Z,10.50
2019-03-08T16:24:27.252Z,10.40
2019-03-08T16:26:58.668Z,10.30
2019-03-08T16:29:30.729Z,10.30
2019-03-08T16:32:12.942Z,10.30
2019-03-08T16:34:43.458Z,10.20
2019-03-08T16:37:32.810Z,10.10
2019-03-08T16:40:28.394Z,10.10
2019-03-08T16:43:23.098Z,10.00
2019-03-08T16:46:11.407Z,10.00
2019-03-08T16:48:47.622Z,9.90
2019-03-08T16:51:39.975Z,9.80
2019-03-08T16:54:20.553Z,9.80
2019-03-08T16:57:19.348Z,9.80
2019-03-08T16:59:56.819Z,9.80
2019-03-08T17:02:52.497Z,9.90
2019-03-08T17:05:41.061Z,9.80
2019-03-08T17:08:33.439Z,9.70
2019-03-08T17:11:12.053Z,9.60
2019-03-08T17:13:49.759Z,9.50
2019-03-08T17:16:45.346Z,9.30
2019-03-08T17:19:24.902Z,9.20
2019-03-08T17:22:14.734Z,9.10
2019-03-08T17:25:13.431Z,9.00
2019-03-08T17:28:06.838Z,9.00
2019-03-08T17:31:11.907Z,8.90
2019-03-08T17:34:19.673Z,8.90
2019-03-08T17:36:59.398Z,8.90
2019-03-08T17:39:49.090Z,8.80
2019-03-08T17:42:53.792Z,8.80
2019-03-08T17:45:42.105Z,8.80
2019-03-08T17:48:34.806Z,8.70
2019-03-08T17:51:27.135Z,8.70
2019-03-08T17:54:19.865Z,8.60
2019-03-08T17:57:08.195Z,8.60
2019-03-08T17:59:48.495Z,8.50
2019-03-08T18:02:43.885Z,8.60
2019-03-08T18:05:46.863Z,8.50
2019-03-08T18:08:36.989Z,8.50
2019-03-08T18:11:33.254Z,8.40
2019-03-08T18:14:14.986Z,8.40
2019-03-08T18:17:10.579Z,8.30
2019-03-08T18:19:58.871Z,8.20
2019-03-08T18:22:41.478Z,8.00
2019-03-08T18:25:30.387Z,7.80
2019-03-08T18:28:32.175Z,7.60
2019-03-08T18:31:13.163Z,7.40
2019-03-08T18:33:49.310Z,7.20
2019-03-08T18:36:42.187Z,7.10
2019-03-08T18:39:31.786Z,7.00
2019-03-08T18:42:20.229Z,6.90
2019-03-08T18:45:09.884Z,6.80
2019-03-08T18:47:59.620Z,6.70
2019-03-08T18:50:42.303Z,6.60
2019-03-08T18:53:30.745Z,6.50
2019-03-08T18:56:09.433Z,6.40
2019-03-08T18:58:53.660Z,6.30
2019-03-08T19:01:52.501Z,6.20
2019-03-08T19:04:42.760Z,6.10
2019-03-08T19:07:27.871Z,6.00
2019-03-08T19:10:17.672Z,6.00
2019-03-08T19:12:57.294Z,5.90
2019-03-08T19:15:37.675Z,5.90
2019-03-08T19:18:19.655Z,5.80
2019-03-08T19:21:01.974Z,5.80
2019-03-08T19:23:37.356Z,5.80
2019-03-08T19:26:25.953Z,5.80
2019-03-08T19:29:06.967Z,5.90
2019-03-08T19:31:46.117Z,5.90
2019-03-08T19:34:38.923Z,6.00
2019-03-08T19:37:31.327Z,6.10
2019-03-08T19:40:13.641Z,6.20
2019-03-08T19:43:12.082Z,6.30
2019-03-08T19:46:00.511Z,6.30
2019-03-08T19:48:59.362Z,6.30
2019-03-08T19:52:04.408Z,6.30
2019-03-08T19:54:52.688Z,6.20
2019-03-08T19:57:41.347Z,6.20
2019-03-08T20:00:30.819Z,6.20
2019-03-08T20:03:19.396Z,6.20
2019-03-08T20:06:03.905Z,6.20
2019-03-08T20:08:42.534Z,6.10
2019-03-08T20:11:31.174Z,6.10
2019-03-08T20:14:20.162Z,6.10
2019-03-08T20:17:05.682Z,6.10
2019-03-08T20:19:49.809Z,6.00
2019-03-08T20:22:48.474Z,6.00
2019-03-08T20:25:44.594Z,5.90
2019-03-08T20:28:34.400Z,5.90
2019-03-08T20:31:22.615Z,5.80
2019-03-08T20:34:08.868Z,5.80
2019-03-08T20:37:01.314Z,5.80
2019-03-08T20:39:51.484Z,5.70
2019-03-08T20:42:30.676Z,5.70
2019-03-08T20:45:15.949Z,5.80
2019-03-08T20:47:48.117Z,5.70
2019-03-08T20:50:18.942Z,5.70
2019-03-08T20:52:49.631Z,5.60
2019-03-08T20:55:20.177Z,5.60
2019-03-08T20:57:50.828Z,5.60
2019-03-08T21:00:21.888Z,5.60
2019-03-08T21:02:52.738Z,5.60
2019-03-08T21:05:23.476Z,5.60
2019-03-08T21:07:54.264Z,5.60
2019-03-08T21:10:24.897Z,5.60
2019-03-08T21:12:55.628Z,5.70
2019-03-08T21:15:26.384Z,5.60
2019-03-08T21:17:57.299Z,5.70
2019-03-08T21:20:28.159Z,5.60
2019-03-08T21:22:59.471Z,5.60
2019-03-08T21:25:30.461Z,5.70
2019-03-08T21:28:01.240Z,5.70
2019-03-08T21:30:32.077Z,5.70
2019-03-08T21:33:02.827Z,5.70
2019-03-08T21:35:33.898Z,5.70
2019-03-08T21:38:04.785Z,5.70
2019-03-08T21:40:35.474Z,5.60
2019-03-08T21:43:06.194Z,5.60
2019-03-08T21:45:36.860Z,5.60
2019-03-08T21:48:07.581Z,5.60
2019-03-08T21:50:38.430Z,5.60
2019-03-08T21:53:09.271Z,5.60
2019-03-08T21:55:41.241Z,5.60
2019-03-08T21:58:12.500Z,5.70
2019-03-08T22:00:43.689Z,5.70
2019-03-08T22:03:14.367Z,5.80
2019-03-08T22:05:45.141Z,5.80
2019-03-08T22:08:17.691Z,5.80
2019-03-08T22:11:07.118Z,5.90
2019-03-08T22:13:37.808Z,5.90
2019-03-08T22:16:08.638Z,6.00
2019-03-08T22:18:39.432Z,6.00
2019-03-08T22:21:10.163Z,6.10
2019-03-08T22:23:40.767Z,6.10
2019-03-08T22:26:11.301Z,6.10
2019-03-08T22:28:41.930Z,6.20
2019-03-08T22:31:12.525Z,6.20
2019-03-08T22:33:43.279Z,6.20
2019-03-08T22:36:13.915Z,6.20
2019-03-08T22:38:44.581Z,6.20
2019-03-08T22:41:15.279Z,6.30
2019-03-08T22:43:45.815Z,6.20
2019-03-08T22:46:16.630Z,6.30
2019-03-08T22:48:47.243Z,6.30
2019-03-08T22:51:17.909Z,6.30
2019-03-08T22:53:48.877Z,6.30
2019-03-08T22:56:19.586Z,6.40
2019-03-08T22:58:50.259Z,6.30
2019-03-08T23:01:22.620Z,6.40
2019-03-08T23:03:55.105Z,6.40
2019-03-08T23:06:25.724Z,6.40
2019-03-08T23:08:56.254Z,6.40
2019-03-08T23:11:27.089Z,6.40
2019-03-08T23:13:58.109Z,6.40
2019-03-08T23:16:29.451Z,6.50
2019-03-08T23:19:00.141Z,6.50
2019-03-08T23:21:30.871Z,6.50
2019-03-08T23:24:01.371Z,6.50
2019-03-08T23:26:39.553Z,6.60
2019-03-08T23:29:20.872Z,6.60
2019-03-08T23:32:02.675Z,6.60
2019-03-08T23:34:33.646Z,6.60
2019-03-08T23:37:04.386Z,6.60
2019-03-08T23:39:35.202Z,6.60
2019-03-08T23:42:05.934Z,6.60
2019-03-08T23:44:36.557Z,6.60
2019-03-08T23:47:07.199Z,6.60
2019-03-08T23:49:37.736Z,6.50
2019-03-08T23:52:08.408Z,6.50
2019-03-08T23:54:39.080Z,6.40
2019-03-08T23:57:09.607Z,6.40
2019-03-08T23:59:40.261Z,6.40
